Time;durP1;ratioP1;P1;durP2;ratioP2;P2;SDS_P1;SDS_P2;PMS_P1;PMS_P2;Temp;Humidity;BMP_temperature;BMP_pressure;BME280_temperature;BME280_humidity;BME280_pressure;Samples;Min_cycle;Max_cycle;Signal;HPM_P1;HPM_P2
2022/09/15 00:00:54;;;;;;;0.93;0.30;;;15.40;99.90;;;;;;5099337;28;20456;-38
2022/09/15 00:03:20;;;;;;;3.67;0.80;;;15.40;99.90;;;;;;5098359;28;20064;-37
2022/09/15 00:05:46;;;;;;;1.95;0.73;;;15.40;99.90;;;;;;5101488;27;20260;-37
2022/09/15 00:08:12;;;;;;;2.67;0.70;;;15.40;99.90;;;;;;5101916;28;20480;-38
2022/09/15 00:10:47;;;;;;;1.13;0.47;;;15.40;99.90;;;;;;5100908;28;20040;-37
2022/09/15 00:13:12;;;;;;;4.13;0.60;;;15.40;99.90;;;;;;5095112;28;20093;-38
2022/09/15 00:15:38;;;;;;;2.30;0.77;;;15.40;99.90;;;;;;5105847;28;20457;-36
2022/09/15 00:18:05;;;;;;;5.65;1.50;;;15.40;99.90;;;;;;5108294;28;20085;-45
2022/09/15 00:20:30;;;;;;;4.18;1.40;;;15.40;99.90;;;;;;5103062;28;20059;-37
2022/09/15 00:22:56;;;;;;;4.88;1.73;;;15.40;99.90;;;;;;5106397;28;20100;-38
2022/09/15 00:25:22;;;;;;;4.38;1.70;;;15.40;99.90;;;;;;5102717;28;20499;-35
2022/09/15 00:27:48;;;;;;;2.88;1.50;;;15.30;99.90;;;;;;5094203;28;20613;-36
2022/09/15 00:30:14;;;;;;;3.85;1.75;;;15.30;99.90;;;;;;5101902;28;20039;-36
2022/09/15 00:32:40;;;;;;;6.47;2.20;;;15.30;99.90;;;;;;5100917;28;20047;-38
2022/09/15 00:35:06;;;;;;;5.25;2.25;;;15.20;99.90;;;;;;5098706;28;20439;-38
2022/09/15 00:37:32;;;;;;;4.22;2.00;;;15.20;99.90;;;;;;5100438;28;20105;-36
2022/09/15 00:39:58;;;;;;;4.53;1.85;;;15.20;99.90;;;;;;5093658;28;20055;-36
2022/09/15 00:42:24;;;;;;;3.97;1.95;;;15.20;99.90;;;;;;5093553;28;20040;-37
2022/09/15 00:44:57;;;;;;;5.75;1.90;;;15.20;99.90;;;;;;5097957;28;20036;-36
2022/09/15 00:47:27;;;;;;;6.55;1.98;;;15.20;99.90;;;;;;5095176;28;20040;-37
2022/09/15 00:49:58;;;;;;;7.65;2.10;;;15.10;99.90;;;;;;5099863;28;20036;-37
2022/09/15 00:52:50;;;;;;;4.57;1.70;;;15.00;99.90;;;;;;5102523;28;20044;-37
2022/09/15 00:55:22;;;;;;;4.90;2.10;;;15.00;99.90;;;;;;5083904;28;20036;-37
2022/09/15 00:57:53;;;;;;;4.85;1.65;;;15.00;99.90;;;;;;5094304;28;20116;-36
2022/09/15 01:00:21;;;;;;;4.32;1.40;;;14.90;99.90;;;;;;5092944;28;20094;-36
2022/09/15 01:02:48;;;;;;;4.40;1.42;;;14.90;99.90;;;;;;5100849;28;20054;-38
2022/09/15 01:05:17;;;;;;;8.65;1.50;;;14.80;99.90;;;;;;5094123;28;20055;-37
2022/09/15 01:07:57;;;;;;;2.65;1.33;;;14.70;99.90;;;;;;5093971;28;20107;-38
2022/09/15 01:10:32;;;;;;;3.78;1.30;;;14.80;99.90;;;;;;5098894;28;20036;-38
2022/09/15 01:13:01;;;;;;;5.55;1.98;;;14.70;99.90;;;;;;5094120;28;20059;-37
2022/09/15 01:16:00;;;;;;;2.80;1.00;;;14.70;99.90;;;;;;5106015;28;20031;-36
2022/09/15 01:18:34;;;;;;;4.78;1.25;;;14.70;99.90;;;;;;5056736;28;20052;-37
2022/09/15 01:21:24;;;;;;;5.82;1.45;;;14.70;99.90;;;;;;5093155;28;20048;-37
2022/09/15 01:24:06;;;;;;;4.32;1.20;;;14.80;99.90;;;;;;5103119;28;20051;-37
2022/09/15 01:26:55;;;;;;;8.88;1.77;;;14.80;99.90;;;;;;5099680;28;20032;-38
2022/09/15 01:29:30;;;;;;;3.25;1.40;;;14.80;99.90;;;;;;5063300;28;20126;-37
2022/09/15 01:35:16;;;;;;;5.22;1.60;;;14.90;99.90;;;;;;5096469;28;20550;-38
2022/09/15 01:37:46;;;;;;;5.32;1.50;;;14.90;99.90;;;;;;5082764;28;20044;-36
2022/09/15 01:40:14;;;;;;;4.80;1.02;;;14.90;99.90;;;;;;5092152;28;20492;-37
2022/09/15 01:42:42;;;;;;;4.82;1.40;;;14.90;99.90;;;;;;5098069;28;20050;-37
2022/09/15 01:45:15;;;;;;;3.92;1.25;;;15.00;99.90;;;;;;5099074;28;20096;-37
2022/09/15 01:47:41;;;;;;;4.15;1.13;;;15.00;99.90;;;;;;5090832;28;20036;-38
2022/09/15 01:50:11;;;;;;;3.90;1.25;;;15.00;99.90;;;;;;5093215;28;20535;-37
2022/09/15 01:52:41;;;;;;;3.60;1.20;;;15.00;99.90;;;;;;5091648;28;20043;-36
2022/09/15 01:55:19;;;;;;;5.63;0.70;;;15.00;99.90;;;;;;5098438;28;20493;-38
2022/09/15 01:57:45;;;;;;;4.72;1.33;;;14.90;99.90;;;;;;5102134;28;20063;-37
2022/09/15 02:00:11;;;;;;;4.88;1.02;;;14.90;99.90;;;;;;5100125;28;20036;-35
2022/09/15 02:02:42;;;;;;;3.28;1.20;;;14.90;99.90;;;;;;5092563;28;20035;-37
2022/09/15 02:05:19;;;;;;;4.93;1.10;;;14.90;99.90;;;;;;5097520;28;20036;-37
2022/09/15 02:08:04;;;;;;;2.70;0.80;;;14.90;99.90;;;;;;5100463;28;20036;-37
2022/09/15 02:10:48;;;;;;;5.47;1.35;;;14.80;99.90;;;;;;5091292;28;20043;-36
2022/09/15 02:13:22;;;;;;;4.38;0.90;;;14.80;99.90;;;;;;5095257;28;20036;-37
2022/09/15 02:15:56;;;;;;;4.20;0.90;;;14.80;99.90;;;;;;5092020;28;20035;-36
2022/09/15 02:18:33;;;;;;;2.28;0.85;;;14.80;99.90;;;;;;5097859;28;20104;-36
2022/09/15 02:21:17;;;;;;;3.50;0.65;;;14.70;99.90;;;;;;5103172;28;20052;-37
2022/09/15 02:23:52;;;;;;;3.42;0.57;;;14.80;99.90;;;;;;5103310;28;20543;-36
2022/09/15 02:26:23;;;;;;;3.67;0.75;;;14.70;99.90;;;;;;5096484;28;20046;-36
2022/09/15 02:28:50;;;;;;;4.47;0.93;;;14.70;99.90;;;;;;5098912;28;20074;-39
2022/09/15 02:31:17;;;;;;;5.95;1.05;;;14.70;99.90;;;;;;5097172;28;20456;-36
2022/09/15 02:34:10;;;;;;;2.03;0.60;;;14.70;99.90;;;;;;5094630;28;20469;-36
2022/09/15 02:36:38;;;;;;;3.17;0.50;;;14.80;99.90;;;;;;5097852;28;20066;-37
2022/09/15 02:39:09;;;;;;;2.53;0.50;;;14.70;99.90;;;;;;5097350;28;20161;-37
2022/09/15 02:41:36;;;;;;;1.42;0.30;;;14.70;99.90;;;;;;5096715;28;20512;-37
2022/09/15 02:44:02;;;;;;;8.77;0.60;;;14.70;99.90;;;;;;5102086;28;20040;-37
2022/09/15 02:46:28;;;;;;;1.35;0.40;;;14.70;99.90;;;;;;5110804;28;20255;-37
2022/09/15 02:48:55;;;;;;;2.33;0.30;;;14.70;99.90;;;;;;5096521;28;20115;-36
2022/09/15 02:51:21;;;;;;;1.95;0.57;;;14.70;99.90;;;;;;5098699;28;20616;-37
2022/09/15 02:53:47;;;;;;;2.17;0.40;;;14.70;99.90;;;;;;5095861;28;20100;-37
2022/09/15 02:56:14;;;;;;;3.65;0.60;;;14.70;99.90;;;;;;5079063;28;20156;-37
2022/09/15 02:58:40;;;;;;;2.25;0.40;;;14.70;99.90;;;;;;5101144;28;20070;-37
2022/09/15 03:01:07;;;;;;;4.07;0.70;;;14.70;99.90;;;;;;5095700;28;20558;-38
2022/09/15 03:03:33;;;;;;;5.05;0.40;;;14.70;99.90;;;;;;5099112;28;20064;-35
2022/09/15 03:06:15;;;;;;;4.43;0.52;;;14.70;99.90;;;;;;5098934;28;20124;-38
2022/09/15 03:08:55;;;;;;;5.85;0.40;;;14.70;99.90;;;;;;5101815;28;20084;-35
2022/09/15 03:11:22;;;;;;;2.55;0.38;;;14.70;99.90;;;;;;5100009;28;20423;-37
2022/09/15 03:13:52;;;;;;;2.35;0.32;;;14.70;99.90;;;;;;5096309;28;20193;-36
2022/09/15 03:16:18;;;;;;;4.75;0.50;;;14.70;99.90;;;;;;5074045;28;20079;-37
2022/09/15 03:18:44;;;;;;;5.00;0.30;;;14.70;99.90;;;;;;5103093;28;20379;-36
2022/09/15 03:21:12;;;;;;;6.05;0.50;;;14.70;99.90;;;;;;5094293;28;20043;-37
2022/09/15 03:23:38;;;;;;;3.35;0.65;;;14.70;99.90;;;;;;5097619;28;20123;-37
2022/09/15 03:26:05;;;;;;;2.38;0.50;;;14.70;99.90;;;;;;5096130;28;20462;-40
2022/09/15 03:28:31;;;;;;;2.13;0.60;;;14.60;99.90;;;;;;5098044;28;20093;-36
2022/09/15 03:30:57;;;;;;;3.90;0.50;;;14.60;99.90;;;;;;5093967;28;20036;-35
2022/09/15 03:33:23;;;;;;;2.53;0.38;;;14.60;99.90;;;;;;5101610;28;20050;-37
2022/09/15 03:35:50;;;;;;;1.27;0.30;;;14.60;99.90;;;;;;5102205;27;20040;-37
2022/09/15 03:38:16;;;;;;;2.78;0.30;;;14.60;99.90;;;;;;5100739;28;20046;-37
2022/09/15 03:40:42;;;;;;;1.70;0.17;;;14.60;99.90;;;;;;5098618;28;20035;-36
2022/09/15 03:43:09;;;;;;;1.98;0.30;;;14.60;99.90;;;;;;5099051;28;20036;-38
2022/09/15 03:45:36;;;;;;;3.45;0.32;;;14.60;99.90;;;;;;5100590;28;20074;-37
2022/09/15 03:48:06;;;;;;;3.30;0.40;;;14.60;99.90;;;;;;5077686;28;20044;-37
2022/09/15 03:50:34;;;;;;;2.80;0.30;;;14.60;99.90;;;;;;5099179;28;20043;-37
2022/09/15 03:53:01;;;;;;;6.57;0.50;;;14.60;99.90;;;;;;5097691;28;20078;-36
2022/09/15 03:55:27;;;;;;;1.65;0.30;;;14.60;99.90;;;;;;5099142;28;20582;-37
2022/09/15 03:57:53;;;;;;;1.20;0.25;;;14.60;99.90;;;;;;5104821;28;20447;-36
2022/09/15 04:00:20;;;;;;;2.20;0.30;;;14.50;99.90;;;;;;5100389;28;20550;-36
2022/09/15 04:02:45;;;;;;;3.47;0.30;;;14.50;99.90;;;;;;5110540;28;20078;-37
2022/09/15 04:05:12;;;;;;;4.18;0.40;;;14.50;99.90;;;;;;5102503;28;20481;-36
2022/09/15 04:07:39;;;;;;;2.42;0.40;;;14.50;99.90;;;;;;5096758;28;20040;-37
2022/09/15 04:10:07;;;;;;;4.45;0.40;;;14.40;99.90;;;;;;5100538;28;20039;-37
2022/09/15 04:12:33;;;;;;;2.33;0.32;;;14.40;99.90;;;;;;5085821;28;20819;-37
2022/09/15 04:14:59;;;;;;;1.92;0.30;;;14.40;99.90;;;;;;5080083;28;20046;-37
2022/09/15 04:17:25;;;;;;;3.17;0.50;;;14.40;99.90;;;;;;5106918;28;20047;-37
2022/09/15 04:19:51;;;;;;;2.88;0.30;;;14.40;99.90;;;;;;5103537;28;20496;-37
2022/09/15 04:22:17;;;;;;;2.00;0.30;;;14.40;99.90;;;;;;5099613;28;20043;-37
2022/09/15 04:24:43;;;;;;;5.00;0.40;;;14.50;99.90;;;;;;5097405;28;20027;-37
2022/09/15 04:27:08;;;;;;;3.80;0.30;;;14.50;99.90;;;;;;5099580;28;20038;-37
2022/09/15 04:29:34;;;;;;;1.95;0.30;;;14.40;99.90;;;;;;5099059;28;20177;-37
2022/09/15 04:32:00;;;;;;;3.80;0.40;;;14.40;99.90;;;;;;5106042;28;20100;-37
2022/09/15 04:34:25;;;;;;;1.98;0.40;;;14.40;99.90;;;;;;5105712;28;20070;-36
2022/09/15 04:36:51;;;;;;;4.25;0.70;;;14.50;99.90;;;;;;5102822;28;20035;-39
2022/09/15 04:39:18;;;;;;;2.95;0.30;;;14.40;99.90;;;;;;5109293;28;20043;-38
2022/09/15 04:41:44;;;;;;;3.70;0.60;;;14.40;99.90;;;;;;5093270;28;20040;-35
2022/09/15 04:44:09;;;;;;;3.25;0.43;;;14.40;99.90;;;;;;5095713;28;20036;-36
2022/09/15 04:46:35;;;;;;;3.85;0.30;;;14.40;99.90;;;;;;5101162;28;20027;-38
2022/09/15 04:49:01;;;;;;;5.38;0.60;;;14.40;99.90;;;;;;5100292;28;20082;-37
2022/09/15 04:51:26;;;;;;;2.40;0.35;;;14.40;99.90;;;;;;5105218;28;20405;-35
2022/09/15 04:53:52;;;;;;;2.95;0.43;;;14.40;99.90;;;;;;5102269;28;20071;-36
2022/09/15 04:56:21;;;;;;;4.88;0.40;;;14.40;99.90;;;;;;5100051;28;20043;-35
2022/09/15 04:58:49;;;;;;;3.80;0.50;;;14.40;99.90;;;;;;5106471;28;20039;-37
2022/09/15 05:01:21;;;;;;;2.38;0.50;;;14.40;99.90;;;;;;5103505;28;20485;-38
2022/09/15 05:03:47;;;;;;;3.00;0.30;;;14.50;99.90;;;;;;5101200;28;20039;-38
2022/09/15 05:06:15;;;;;;;2.80;0.45;;;14.40;99.90;;;;;;5096456;28;20564;-36
2022/09/15 05:08:41;;;;;;;2.70;0.32;;;14.50;99.90;;;;;;5095677;28;20127;-36
2022/09/15 05:11:09;;;;;;;2.42;0.30;;;14.50;99.90;;;;;;5098918;28;20502;-38
2022/09/15 05:13:35;;;;;;;3.63;0.30;;;14.50;99.90;;;;;;5092082;28;20114;-38
2022/09/15 05:16:19;;;;;;;4.88;0.38;;;14.50;99.90;;;;;;5103010;28;20051;-37
2022/09/15 05:18:46;;;;;;;2.67;0.30;;;14.60;99.90;;;;;;5100181;28;20100;-35
2022/09/15 05:21:15;;;;;;;1.88;0.38;;;14.60;99.90;;;;;;5094553;28;20605;-37
2022/09/15 05:23:41;;;;;;;2.75;0.30;;;14.60;99.90;;;;;;5098073;28;20032;-36
2022/09/15 05:26:11;;;;;;;2.45;0.50;;;14.60;99.90;;;;;;5096479;28;20036;-37
2022/09/15 05:28:37;;;;;;;2.10;0.22;;;14.60;99.90;;;;;;5099638;28;20043;-36
2022/09/15 05:31:16;;;;;;;1.67;0.30;;;14.60;99.90;;;;;;5095436;28;20044;-37
2022/09/15 05:33:43;;;;;;;6.05;0.43;;;14.60;99.90;;;;;;5094905;28;20039;-35
2022/09/15 05:36:09;;;;;;;4.57;0.40;;;14.60;99.90;;;;;;5090092;28;20039;-37
2022/09/15 05:38:35;;;;;;;1.60;0.40;;;14.60;99.90;;;;;;5099701;28;20456;-35
2022/09/15 05:41:12;;;;;;;4.28;0.40;;;14.60;99.90;;;;;;5076938;28;20051;-36
2022/09/15 05:43:38;;;;;;;5.50;0.40;;;14.60;99.90;;;;;;5094361;28;20054;-37
2022/09/15 05:46:06;;;;;;;3.20;0.30;;;14.60;99.90;;;;;;5093283;28;20031;-37
2022/09/15 05:48:32;;;;;;;5.65;0.40;;;14.50;99.90;;;;;;5091323;28;20481;-39
2022/09/15 05:50:58;;;;;;;1.77;0.28;;;14.50;99.90;;;;;;5091858;28;20032;-36
2022/09/15 05:53:24;;;;;;;1.65;0.40;;;14.50;99.90;;;;;;5095985;28;20058;-37
2022/09/15 05:55:57;;;;;;;3.55;0.50;;;14.50;99.90;;;;;;5093165;28;20565;-37
2022/09/15 05:58:24;;;;;;;3.67;0.28;;;14.50;99.90;;;;;;5096203;28;20047;-37
2022/09/15 06:00:50;;;;;;;4.55;0.60;;;14.50;99.90;;;;;;5097873;28;20061;-36
2022/09/15 06:03:16;;;;;;;5.03;0.55;;;14.50;99.90;;;;;;5095988;28;20039;-36
2022/09/15 06:05:42;;;;;;;2.85;0.30;;;14.50;99.90;;;;;;5094211;28;20404;-38
2022/09/15 06:08:08;;;;;;;3.65;0.47;;;14.60;99.90;;;;;;5093491;28;20089;-36
2022/09/15 06:10:34;;;;;;;2.13;0.40;;;14.60;99.90;;;;;;5094686;28;20031;-38
2022/09/15 06:13:00;;;;;;;3.33;0.38;;;14.60;99.90;;;;;;5097722;28;20081;-36
2022/09/15 06:15:25;;;;;;;4.35;0.45;;;14.60;99.90;;;;;;5095123;28;20040;-36
2022/09/15 06:17:51;;;;;;;1.83;0.30;;;14.60;99.90;;;;;;5093916;28;20035;-36
2022/09/15 06:20:17;;;;;;;2.92;0.30;;;14.60;99.90;;;;;;5094097;28;20032;-37
2022/09/15 06:22:44;;;;;;;4.25;0.50;;;14.60;99.90;;;;;;5088893;28;20044;-36
2022/09/15 06:25:12;;;;;;;5.47;0.55;;;14.70;99.90;;;;;;5097198;28;20039;-35
2022/09/15 06:27:40;;;;;;;6.13;0.70;;;14.70;99.90;;;;;;5099245;28;20040;-38
2022/09/15 06:30:08;;;;;;;3.45;0.40;;;14.80;99.90;;;;;;5098886;28;20516;-38
2022/09/15 06:32:34;;;;;;;2.30;0.38;;;14.90;99.90;;;;;;5094984;28;20075;-36
2022/09/15 06:35:05;;;;;;;3.83;0.40;;;14.90;99.90;;;;;;5094822;28;20119;-36
2022/09/15 06:37:31;;;;;;;4.95;0.95;;;15.00;99.90;;;;;;5079960;28;20040;-36
2022/09/15 06:39:57;;;;;;;4.82;0.30;;;15.00;99.90;;;;;;5096467;28;20172;-36
2022/09/15 06:42:22;;;;;;;5.03;0.77;;;15.10;99.90;;;;;;5095433;28;20093;-37
2022/09/15 06:44:48;;;;;;;3.15;0.40;;;15.10;99.90;;;;;;5094738;28;20549;-37
2022/09/15 06:47:14;;;;;;;3.08;0.47;;;15.20;99.90;;;;;;5090994;28;20507;-36
2022/09/15 06:49:40;;;;;;;3.80;0.47;;;15.20;99.90;;;;;;5097882;28;20028;-37
2022/09/15 06:52:06;;;;;;;5.13;0.88;;;15.30;99.90;;;;;;5099282;28;20540;-36
2022/09/15 06:54:31;;;;;;;1.15;0.30;;;15.40;99.90;;;;;;5095551;28;20059;-35
2022/09/15 06:56:57;;;;;;;2.35;0.80;;;15.40;99.90;;;;;;5092758;28;20136;-38
2022/09/15 06:59:23;;;;;;;4.82;0.63;;;15.50;99.90;;;;;;5091237;28;20389;-37
2022/09/15 07:01:53;;;;;;;4.60;0.55;;;15.60;99.90;;;;;;5099725;28;20073;-37
2022/09/15 07:04:18;;;;;;;5.03;0.52;;;15.70;99.90;;;;;;5098450;28;20059;-38
2022/09/15 07:06:44;;;;;;;3.83;0.55;;;15.70;99.90;;;;;;5100274;28;20036;-38
2022/09/15 07:09:10;;;;;;;13.45;0.93;;;15.80;99.90;;;;;;5091556;28;20071;-36
2022/09/15 07:11:36;;;;;;;3.45;0.40;;;15.90;99.90;;;;;;5101974;28;20064;-37
2022/09/15 07:14:02;;;;;;;4.10;0.40;;;15.90;99.90;;;;;;5076936;28;20092;-37
2022/09/15 07:16:27;;;;;;;1.65;0.28;;;15.90;99.90;;;;;;5100083;28;20484;-37
2022/09/15 07:18:55;;;;;;;2.08;0.30;;;15.90;99.90;;;;;;5106440;28;20043;-36
2022/09/15 07:21:21;;;;;;;4.63;0.60;;;15.90;99.90;;;;;;5102571;28;20417;-36
2022/09/15 07:23:48;;;;;;;7.25;0.60;;;15.90;99.90;;;;;;5096604;28;20047;-38
2022/09/15 07:26:16;;;;;;;4.68;0.82;;;15.90;99.90;;;;;;5093919;27;20036;-38
2022/09/15 07:28:44;;;;;;;4.70;0.40;;;15.90;99.90;;;;;;5094094;28;20040;-36
2022/09/15 07:31:13;;;;;;;5.55;0.50;;;15.90;99.90;;;;;;5097269;28;20043;-37
2022/09/15 07:33:39;;;;;;;3.83;0.65;;;15.90;98.90;;;;;;5096042;28;20036;-36
2022/09/15 07:36:07;;;;;;;0.95;0.28;;;15.90;99.60;;;;;;5090560;28;20054;-36
2022/09/15 07:38:33;;;;;;;3.70;0.70;;;16.00;99.40;;;;;;5094004;28;20051;-37
2022/09/15 07:41:07;;;;;;;6.40;0.47;;;16.10;99.30;;;;;;5097230;27;20039;-37
2022/09/15 07:43:33;;;;;;;6.50;1.05;;;16.10;98.30;;;;;;5098601;28;20036;-36
2022/09/15 07:45:59;;;;;;;1.42;0.28;;;16.10;99.30;;;;;;5101599;28;20481;-36
2022/09/15 07:48:25;;;;;;;3.00;0.65;;;16.20;98.90;;;;;;5076513;28;20054;-38
2022/09/15 07:50:51;;;;;;;2.45;0.40;;;16.20;98.80;;;;;;5099404;28;20036;-37
2022/09/15 07:53:16;;;;;;;3.00;0.40;;;16.20;98.60;;;;;;5096831;28;20047;-37
2022/09/15 07:55:42;;;;;;;2.25;0.30;;;16.20;98.70;;;;;;5094307;28;20040;-37
2022/09/15 07:58:08;;;;;;;1.80;0.35;;;16.20;98.10;;;;;;5094410;28;20074;-37
2022/09/15 08:00:34;;;;;;;3.92;0.30;;;16.10;97.60;;;;;;5095439;28;20036;-37
2022/09/15 08:02:59;;;;;;;6.10;0.30;;;16.20;97.50;;;;;;5102611;28;20044;-37
2022/09/15 08:05:27;;;;;;;3.05;0.30;;;16.20;97.60;;;;;;5106600;28;20070;-36
2022/09/15 08:07:54;;;;;;;5.25;0.30;;;16.10;97.70;;;;;;5096272;28;20032;-36
2022/09/15 08:10:21;;;;;;;3.05;0.35;;;16.10;98.00;;;;;;5101147;28;20133;-37
2022/09/15 08:12:48;;;;;;;2.05;0.30;;;16.10;97.70;;;;;;5101143;28;20654;-36
2022/09/15 08:15:13;;;;;;;1.83;0.47;;;16.10;98.20;;;;;;5103132;28;20574;-37
2022/09/15 08:17:39;;;;;;;2.83;0.30;;;16.10;98.60;;;;;;5079096;28;20123;-36
2022/09/15 08:20:06;;;;;;;2.47;0.30;;;16.10;98.80;;;;;;5097146;28;20088;-37
2022/09/15 08:22:32;;;;;;;2.05;0.30;;;16.10;98.80;;;;;;5084178;28;20052;-36
2022/09/15 08:24:57;;;;;;;2.05;0.30;;;16.20;98.90;;;;;;5099238;28;20036;-38
2022/09/15 08:27:24;;;;;;;1.60;0.30;;;16.20;98.80;;;;;;5095516;28;20063;-36
2022/09/15 08:29:49;;;;;;;1.60;0.30;;;16.30;98.50;;;;;;5097012;28;20036;-36
2022/09/15 08:32:15;;;;;;;6.03;0.65;;;16.40;98.50;;;;;;5094451;28;20457;-36
2022/09/15 08:34:41;;;;;;;2.08;0.30;;;16.40;98.40;;;;;;5101266;28;20039;-38
2022/09/15 08:37:06;;;;;;;4.28;0.50;;;16.50;98.50;;;;;;5094637;28;20039;-39
2022/09/15 08:39:32;;;;;;;3.75;0.45;;;16.60;98.60;;;;;;5095983;28;20042;-37
2022/09/15 08:42:00;;;;;;;4.90;0.70;;;16.60;98.60;;;;;;5102492;28;20035;-36
2022/09/15 08:44:48;;;;;;;7.18;0.90;;;16.70;98.70;;;;;;5099915;28;20044;-36
2022/09/15 08:47:24;;;;;;;3.08;0.60;;;16.70;98.70;;;;;;5100622;28;20036;-37
2022/09/15 08:50:30;;;;;;;4.65;1.13;;;16.70;98.60;;;;;;5105765;27;20460;-36
2022/09/15 08:53:11;;;;;;;5.63;0.57;;;16.70;97.50;;;;;;5094890;28;20044;-37
2022/09/15 08:55:47;;;;;;;6.55;1.08;;;16.70;97.90;;;;;;5099653;28;20505;-37
2022/09/15 08:58:22;;;;;;;4.15;1.00;;;16.70;98.20;;;;;;5098021;28;20614;-37
2022/09/15 09:00:52;;;;;;;7.45;1.83;;;16.80;97.00;;;;;;5095992;27;20551;-38
2022/09/15 09:03:34;;;;;;;7.60;1.65;;;16.90;97.50;;;;;;5094945;27;20565;-35
2022/09/15 09:06:09;;;;;;;8.50;2.40;;;17.00;96.80;;;;;;5099497;28;20039;-36
2022/09/15 09:08:59;;;;;;;9.85;2.97;;;17.00;97.00;;;;;;5094041;28;20311;-37
2022/09/15 09:11:39;;;;;;;11.95;3.28;;;16.90;95.40;;;;;;5091984;28;20166;-38
2022/09/15 09:14:30;;;;;;;13.55;4.88;;;16.90;96.90;;;;;;5097745;28;20039;-37
2022/09/15 09:17:02;;;;;;;14.93;5.15;;;16.90;96.30;;;;;;5094713;28;20039;-36
2022/09/15 09:19:51;;;;;;;13.27;4.40;;;17.20;96.80;;;;;;5097417;28;20044;-37
2022/09/15 09:22:23;;;;;;;3.88;0.60;;;17.50;95.90;;;;;;5097388;28;20186;-39
2022/09/15 09:24:54;;;;;;;2.80;0.50;;;17.80;94.80;;;;;;5096706;28;20044;-49
2022/09/15 09:27:25;;;;;;;8.13;0.63;;;17.90;93.50;;;;;;5077907;28;20048;-37
2022/09/15 09:30:31;;;;;;;4.07;0.50;;;18.00;93.00;;;;;;5101334;28;20392;-38
2022/09/15 09:33:24;;;;;;;9.05;0.70;;;18.30;92.30;;;;;;4995250;28;20185;-37
2022/09/15 09:35:51;;;;;;;;;;;18.50;91.80;;;;;;5006636;28;20083;-33
2022/09/15 09:38:25;;;;;;;5.07;0.63;;;18.50;90.70;;;;;;5066517;28;20403;-34
2022/09/15 09:40:51;;;;;;;3.67;0.60;;;18.50;90.70;;;;;;5095770;28;20028;-34
2022/09/15 09:43:17;;;;;;;2.97;0.60;;;18.50;90.70;;;;;;5095386;28;20063;-34
2022/09/15 09:45:44;;;;;;;4.22;0.63;;;18.50;90.70;;;;;;5101678;28;20036;-37
2022/09/15 09:48:21;;;;;;;6.22;0.98;;;18.40;90.40;;;;;;5098055;28;20031;-33
2022/09/15 09:50:48;;;;;;;4.25;0.80;;;18.40;89.20;;;;;;5091403;28;20081;-35
2022/09/15 09:53:17;;;;;;;4.60;0.90;;;18.30;90.30;;;;;;5103586;28;20564;-33
2022/09/15 09:55:44;;;;;;;4.15;0.80;;;18.30;90.10;;;;;;5102352;28;20105;-34
2022/09/15 09:58:28;;;;;;;3.45;0.88;;;18.40;90.10;;;;;;5098508;28;20408;-34
2022/09/15 10:00:54;;;;;;;3.20;0.60;;;18.50;88.20;;;;;;5095943;28;20031;-33
2022/09/15 10:03:23;;;;;;;2.42;0.60;;;18.40;88.40;;;;;;5094113;28;20055;-34
2022/09/15 10:06:05;;;;;;;4.47;1.13;;;18.40;87.80;;;;;;5094838;28;20039;-35
2022/09/15 10:08:31;;;;;;;5.40;1.42;;;18.20;86.10;;;;;;5092796;28;20396;-35
2022/09/15 10:11:03;;;;;;;4.25;1.35;;;18.20;88.60;;;;;;5077576;28;20043;-33
2022/09/15 10:13:29;;;;;;;3.70;0.80;;;18.10;86.80;;;;;;5075606;28;20039;-34
2022/09/15 10:15:58;;;;;;;4.97;0.57;;;18.10;87.00;;;;;;5095380;28;20282;-36
2022/09/15 10:18:36;;;;;;;8.80;1.23;;;18.00;86.90;;;;;;5094548;28;20110;-36
2022/09/15 10:21:05;;;;;;;7.28;1.23;;;17.90;86.20;;;;;;5100309;28;20040;-34
2022/09/15 10:23:32;;;;;;;6.28;1.17;;;17.80;88.50;;;;;;5094329;28;20039;-34
2022/09/15 10:26:28;;;;;;;3.10;0.95;;;17.60;88.40;;;;;;5091658;28;20036;-35
2022/09/15 10:29:11;;;;;;;4.72;0.75;;;17.50;87.30;;;;;;5081516;28;20104;-35
2022/09/15 10:31:37;;;;;;;3.25;0.40;;;17.40;89.30;;;;;;5098478;28;20032;-34
2022/09/15 10:34:24;;;;;;;3.75;0.40;;;17.50;90.10;;;;;;5094494;28;20040;-35
2022/09/15 10:36:53;;;;;;;2.58;0.60;;;17.50;89.70;;;;;;5092190;28;20396;-36
2022/09/15 10:39:42;;;;;;;2.97;0.40;;;17.50;90.10;;;;;;5101677;28;20395;-34
2022/09/15 10:42:12;;;;;;;2.45;0.60;;;17.50;87.50;;;;;;5098878;28;20038;-34
2022/09/15 10:44:38;;;;;;;1.17;0.25;;;17.70;87.80;;;;;;5101705;28;20036;-35
2022/09/15 10:47:35;;;;;;;1.33;0.20;;;17.90;87.90;;;;;;5097756;28;20035;-34
2022/09/15 10:50:01;;;;;;;1.60;0.25;;;18.10;83.30;;;;;;5095933;28;20465;-34
2022/09/15 10:52:53;;;;;;;2.22;0.30;;;18.30;83.30;;;;;;5096394;28;20047;-34
2022/09/15 10:55:40;;;;;;;2.90;0.30;;;18.70;82.90;;;;;;5084155;28;20615;-33
2022/09/15 10:58:34;;;;;;;1.85;0.47;;;19.00;80.90;;;;;;5103870;28;20039;-34
2022/09/15 11:01:31;;;;;;;2.13;0.60;;;19.10;78.80;;;;;;5097954;27;20051;-36
2022/09/15 11:04:15;;;;;;;7.07;1.50;;;19.00;81.00;;;;;;5100436;28;20032;-35
2022/09/15 11:06:40;;;;;;;4.97;1.60;;;19.00;81.80;;;;;;5095662;28;20043;-35
2022/09/15 11:09:20;;;;;;;6.32;1.50;;;19.10;82.00;;;;;;5097753;28;20062;-34
2022/09/15 11:12:04;;;;;;;9.57;1.40;;;19.30;80.90;;;;;;5099685;28;20392;-35
2022/09/15 11:14:50;;;;;;;3.50;0.80;;;19.70;79.50;;;;;;5099133;28;20040;-34
2022/09/15 11:17:34;;;;;;;1.60;0.40;;;19.80;78.80;;;;;;5096071;28;20523;-35
2022/09/15 11:20:29;;;;;;;2.08;0.50;;;19.70;78.30;;;;;;5100348;28;20483;-35
2022/09/15 11:23:01;;;;;;;4.82;0.50;;;19.50;76.50;;;;;;5097451;28;20048;-36
2022/09/15 11:25:34;;;;;;;3.85;0.50;;;19.30;79.30;;;;;;5100770;28;20495;-35
2022/09/15 11:28:22;;;;;;;1.15;0.22;;;19.20;80.60;;;;;;5097574;28;20808;-34
2022/09/15 11:31:01;;;;;;;3.55;0.50;;;19.10;81.00;;;;;;5100197;28;20028;-35
2022/09/15 11:33:52;;;;;;;3.85;0.60;;;18.90;81.80;;;;;;5097690;28;20047;-34
2022/09/15 11:36:28;;;;;;;5.30;0.60;;;18.70;85.00;;;;;;5097359;28;20040;-34
2022/09/15 11:39:09;;;;;;;5.47;1.05;;;18.40;86.00;;;;;;5106700;28;20172;-35
2022/09/15 11:41:55;;;;;;;5.30;0.70;;;18.20;87.30;;;;;;5097856;28;20054;-35
2022/09/15 11:44:33;;;;;;;4.05;0.50;;;18.20;88.40;;;;;;5100506;28;20044;-33
2022/09/15 11:47:27;;;;;;;3.95;0.40;;;18.10;88.80;;;;;;5095094;28;20047;-36
2022/09/15 11:50:02;;;;;;;2.92;0.30;;;18.10;90.10;;;;;;5083691;28;20052;-36
2022/09/15 11:53:02;;;;;;;6.18;0.60;;;18.20;89.20;;;;;;5076480;28;20061;-34
2022/09/15 11:55:39;;;;;;;2.33;0.40;;;18.30;87.70;;;;;;5052305;28;20056;-35
2022/09/15 11:58:32;;;;;;;5.15;0.50;;;18.40;87.60;;;;;;5093684;28;20504;-34
2022/09/15 12:01:00;;;;;;;5.28;0.30;;;18.40;86.30;;;;;;5094792;28;20131;-34
2022/09/15 12:04:09;;;;;;;2.35;0.22;;;18.50;85.60;;;;;;5099027;28;20036;-34
2022/09/15 12:06:42;;;;;;;1.48;0.22;;;18.60;85.10;;;;;;5104101;28;20515;-33
2022/09/15 12:09:16;;;;;;;2.83;0.30;;;18.70;85.50;;;;;;5100331;28;20531;-34
2022/09/15 12:11:55;;;;;;;3.53;0.60;;;18.60;83.90;;;;;;5100434;28;20056;-34
2022/09/15 12:14:33;;;;;;;4.32;0.60;;;18.80;85.40;;;;;;5100941;28;20056;-35
2022/09/15 12:16:59;;;;;;;2.30;0.25;;;18.90;82.20;;;;;;5098168;28;20044;-34
2022/09/15 12:19:25;;;;;;;2.22;0.35;;;19.00;83.00;;;;;;5094735;28;20050;-34
2022/09/15 12:22:34;;;;;;;3.22;0.40;;;19.10;82.50;;;;;;5103870;28;20048;-34
2022/09/15 12:25:01;;;;;;;4.35;0.40;;;19.20;80.70;;;;;;4997052;28;20042;-34
2022/09/15 12:27:27;;;;;;;3.22;0.70;;;19.70;81.20;;;;;;5060003;28;20048;-33
2022/09/15 12:29:56;;;;;;;2.42;0.30;;;20.10;78.60;;;;;;5095733;28;20039;-37
2022/09/15 12:32:27;;;;;;;2.97;0.30;;;20.40;77.50;;;;;;5096660;28;20040;-35
2022/09/15 12:34:59;;;;;;;1.15;0.20;;;20.70;77.60;;;;;;5100804;28;20040;-36
2022/09/15 12:37:36;;;;;;;1.65;0.20;;;20.70;73.20;;;;;;5098829;28;20051;-35
2022/09/15 12:40:06;;;;;;;1.48;0.20;;;20.20;75.40;;;;;;5093886;28;20040;-35
2022/09/15 12:42:34;;;;;;;4.22;0.50;;;19.60;77.00;;;;;;5090774;28;20040;-35
2022/09/15 12:45:18;;;;;;;3.30;0.28;;;18.90;81.60;;;;;;5098591;28;20371;-34
2022/09/15 12:47:53;;;;;;;2.15;0.38;;;18.30;86.90;;;;;;5096992;28;20028;-34
2022/09/15 12:50:21;;;;;;;2.38;0.30;;;17.70;90.10;;;;;;5100410;28;20036;-35
2022/09/15 12:52:48;;;;;;;2.38;0.60;;;17.30;91.30;;;;;;5091723;28;20043;-34
2022/09/15 12:55:35;;;;;;;2.78;0.30;;;17.00;92.10;;;;;;5092969;28;20054;-35
2022/09/15 12:58:08;;;;;;;1.63;0.35;;;16.80;95.00;;;;;;5098274;28;20039;-33
2022/09/15 13:00:38;;;;;;;3.05;0.43;;;16.60;95.90;;;;;;5092622;28;20034;-34
2022/09/15 13:03:22;;;;;;;3.53;0.30;;;16.40;97.10;;;;;;5090256;28;20032;-36
2022/09/15 13:05:48;;;;;;;3.42;0.40;;;16.40;99.20;;;;;;5097374;28;20059;-34
2022/09/15 13:08:35;;;;;;;5.25;0.50;;;16.40;99.50;;;;;;5081832;28;20090;-33
2022/09/15 13:11:21;;;;;;;3.90;0.50;;;16.40;99.90;;;;;;5090360;28;20043;-35
2022/09/15 13:14:02;;;;;;;6.20;0.68;;;16.50;99.90;;;;;;5077838;28;20043;-34